createdAt,value
2019-01-11T00:01:14.207Z,18.67
2019-01-11T00:03:44.383Z,21.00
2019-01-11T00:06:14.988Z,19.33
2019-01-11T00:08:48.266Z,20.03
2019-01-11T00:11:18.753Z,15.93
2019-01-11T00:13:48.975Z,21.27
2019-01-11T00:16:19.431Z,18.43
2019-01-11T00:18:49.840Z,20.17
2019-01-11T00:21:20.273Z,18.27
2019-01-11T00:23:50.716Z,19.67
2019-01-11T00:26:21.062Z,19.20
2019-01-11T00:28:51.249Z,19.30
2019-01-11T00:31:21.787Z,15.67
2019-01-11T00:33:52.002Z,17.57
2019-01-11T00:36:22.244Z,19.27
2019-01-11T00:38:52.562Z,13.40
2019-01-11T00:41:22.791Z,21.10
2019-01-11T00:43:53.352Z,17.73
2019-01-11T00:46:23.693Z,18.87
2019-01-11T00:48:54.027Z,17.20
2019-01-11T00:51:24.590Z,16.30
2019-01-11T00:53:54.822Z,16.20
2019-01-11T00:56:25.562Z,23.47
2019-01-11T00:58:55.737Z,16.67
2019-01-11T01:01:26.035Z,22.23
2019-01-11T01:03:56.291Z,19.73
2019-01-11T01:06:26.518Z,14.93
2019-01-11T01:08:57.129Z,16.37
2019-01-11T01:11:27.448Z,20.90
2019-01-11T01:13:58.000Z,18.53
2019-01-11T01:16:29.744Z,20.03
2019-01-11T01:19:00.286Z,15.87
2019-01-11T01:21:32.470Z,16.47
2019-01-11T01:24:03.072Z,16.47
2019-01-11T01:26:33.263Z,18.97
2019-01-11T01:29:03.617Z,16.67
2019-01-11T01:31:33.934Z,20.37
2019-01-11T01:34:04.348Z,17.07
2019-01-11T01:36:34.623Z,15.63
2019-01-11T01:39:07.467Z,15.93
2019-01-11T01:41:37.826Z,18.73
2019-01-11T01:44:08.085Z,17.90
2019-01-11T01:46:38.609Z,16.70
2019-01-11T01:49:09.163Z,17.73
2019-01-11T01:51:39.595Z,19.17
2019-01-11T01:54:10.062Z,19.47
2019-01-11T01:56:40.246Z,18.67
2019-01-11T01:59:10.480Z,17.40
2019-01-11T02:01:40.678Z,23.13
2019-01-11T02:04:10.926Z,19.83
2019-01-11T02:06:41.435Z,15.73
2019-01-11T02:09:11.717Z,16.57
2019-01-11T02:11:42.279Z,24.13
2019-01-11T02:14:12.558Z,19.80
2019-01-11T02:16:42.760Z,18.80
2019-01-11T02:19:12.992Z,20.37
2019-01-11T02:21:43.364Z,16.37
2019-01-11T02:24:13.587Z,19.10
2019-01-11T02:26:43.947Z,18.03
2019-01-11T02:29:14.265Z,23.50
2019-01-11T02:31:44.636Z,17.47
2019-01-11T02:34:14.926Z,25.07
2019-01-11T02:36:45.251Z,22.07
2019-01-11T02:39:15.479Z,16.70
2019-01-11T02:41:45.710Z,19.47
2019-01-11T02:44:16.147Z,17.57
2019-01-11T02:46:46.626Z,17.97
2019-01-11T02:49:17.080Z,17.90
2019-01-11T02:51:47.303Z,18.50
2019-01-11T02:54:17.531Z,16.83
2019-01-11T02:56:47.773Z,19.53
2019-01-11T02:59:17.949Z,17.50
2019-01-11T03:01:48.170Z,17.20
2019-01-11T03:04:18.390Z,19.10
2019-01-11T03:06:48.592Z,18.80
2019-01-11T03:09:18.805Z,19.47
2019-01-11T03:11:49.106Z,17.43
2019-01-11T03:14:19.350Z,17.23
2019-01-11T03:16:49.541Z,19.20
2019-01-11T03:19:20.010Z,17.00
2019-01-11T03:21:50.197Z,18.93
2019-01-11T03:24:20.592Z,18.10
2019-01-11T03:26:51.082Z,17.27
2019-01-11T03:29:21.571Z,15.80
2019-01-11T03:31:51.768Z,15.83
2019-01-11T03:34:22.232Z,16.57
2019-01-11T03:36:52.451Z,16.13
2019-01-11T03:39:22.892Z,16.60
2019-01-11T03:41:54.757Z,21.10
2019-01-11T03:44:24.946Z,16.67
2019-01-11T03:46:55.410Z,17.23
2019-01-11T03:49:25.598Z,16.90
2019-01-11T03:51:55.882Z,14.57
2019-01-11T03:54:26.149Z,14.27
2019-01-11T03:56:56.370Z,18.00
2019-01-11T03:59:26.573Z,15.83
2019-01-11T04:01:57.041Z,15.47
2019-01-11T04:04:27.319Z,13.37
2019-01-11T04:06:57.544Z,17.13
2019-01-11T04:09:27.770Z,13.63
2019-01-11T04:11:57.990Z,15.13
2019-01-11T04:14:28.174Z,15.50
2019-01-11T04:16:58.403Z,16.77
2019-01-11T04:19:28.830Z,14.10
2019-01-11T04:22:03.118Z,18.00
2019-01-11T04:24:34.955Z,19.87
2019-01-11T04:27:05.241Z,18.80
2019-01-11T04:29:35.694Z,18.40
2019-01-11T04:32:06.178Z,16.93
2019-01-11T04:34:36.379Z,14.60
2019-01-11T04:37:06.603Z,19.70
2019-01-11T04:39:36.803Z,19.43
2019-01-11T04:42:07.015Z,13.53
2019-01-11T04:44:37.458Z,16.23
2019-01-11T04:47:07.677Z,16.93
2019-01-11T04:49:38.334Z,18.57
2019-01-11T04:52:08.561Z,19.00
2019-01-11T04:54:38.751Z,20.33
2019-01-11T04:57:08.973Z,19.00
2019-01-11T04:59:39.167Z,15.43
2019-01-11T05:02:09.396Z,15.23
2019-01-11T05:04:39.848Z,14.93
2019-01-11T05:07:10.068Z,18.40
2019-01-11T05:09:40.290Z,15.50
2019-01-11T05:12:10.507Z,16.27
2019-01-11T05:14:40.722Z,18.43
2019-01-11T05:17:10.957Z,15.40
2019-01-11T05:19:41.153Z,18.93
2019-01-11T05:22:11.380Z,16.93
2019-01-11T05:24:41.606Z,15.93
2019-01-11T05:27:12.042Z,17.97
2019-01-11T05:29:42.257Z,15.63
2019-01-11T05:32:12.450Z,18.20
2019-01-11T05:34:42.673Z,18.27
2019-01-11T05:37:12.875Z,16.80
2019-01-11T05:39:43.095Z,18.43
2019-01-11T05:42:13.277Z,15.80
2019-01-11T05:44:43.514Z,17.17
2019-01-11T05:47:13.701Z,18.50
2019-01-11T05:49:44.163Z,17.67
2019-01-11T05:52:14.363Z,19.83
2019-01-11T05:54:44.819Z,19.10
2019-01-11T05:57:15.019Z,17.03
2019-01-11T05:59:45.475Z,18.07
2019-01-11T06:02:15.661Z,17.33
2019-01-11T06:04:46.569Z,16.13
2019-01-11T06:07:23.006Z,17.67
2019-01-11T06:09:53.250Z,18.67
2019-01-11T06:12:23.691Z,20.93
2019-01-11T06:14:53.913Z,19.47
2019-01-11T06:17:24.355Z,22.37
2019-01-11T06:19:54.802Z,19.73
2019-01-11T06:22:25.235Z,19.70
2019-01-11T06:24:55.411Z,19.47
2019-01-11T06:27:25.836Z,23.03
2019-01-11T06:29:56.067Z,17.60
2019-01-11T06:32:26.401Z,21.23
2019-01-11T06:34:56.617Z,22.03
2019-01-11T06:37:26.822Z,21.17
2019-01-11T06:39:57.283Z,23.73
2019-01-11T06:42:27.473Z,17.47
2019-01-11T06:44:58.966Z,18.73
2019-01-11T06:47:29.235Z,18.93
2019-01-11T06:49:59.446Z,25.13
2019-01-11T06:52:29.650Z,23.33
2019-01-11T06:55:00.162Z,21.17
2019-01-11T06:57:30.415Z,17.67
2019-01-11T07:00:00.875Z,19.43
2019-01-11T07:02:31.074Z,18.57
2019-01-11T07:05:02.848Z,23.57
2019-01-11T07:07:33.100Z,19.20
2019-01-11T07:10:04.954Z,20.37
2019-01-11T07:12:42.149Z,22.03
2019-01-11T07:15:13.182Z,22.03
2019-01-11T07:17:43.673Z,23.30
2019-01-11T07:20:15.438Z,19.33
2019-01-11T07:22:45.884Z,22.23
2019-01-11T07:25:16.554Z,25.80
2019-01-11T07:28:00.389Z,23.30
2019-01-11T07:30:32.326Z,18.57
2019-01-11T07:33:03.691Z,19.83
2019-01-11T07:35:35.546Z,20.87
2019-01-11T07:38:06.015Z,25.00
2019-01-11T07:40:36.258Z,23.07
2019-01-11T07:43:06.483Z,20.70
2019-01-11T07:45:36.683Z,22.93
2019-01-11T07:48:06.907Z,25.90
2019-01-11T07:50:37.098Z,24.80
2019-01-11T07:53:07.386Z,24.13
2019-01-11T07:55:37.591Z,23.80
2019-01-11T07:58:08.051Z,24.33
2019-01-11T08:00:38.423Z,20.20
2019-01-11T08:03:08.724Z,20.10
2019-01-11T08:05:39.168Z,20.10
2019-01-11T08:08:10.132Z,22.43
2019-01-11T08:10:40.558Z,25.07
2019-01-11T08:13:10.802Z,23.50
2019-01-11T08:15:40.994Z,20.73
2019-01-11T08:18:11.445Z,24.13
2019-01-11T08:20:41.638Z,18.87
2019-01-11T08:23:11.866Z,17.70
2019-01-11T08:25:42.327Z,23.50
2019-01-11T08:28:13.114Z,22.50
2019-01-11T08:30:43.378Z,27.63
2019-01-11T08:33:18.484Z,21.93
2019-01-11T08:35:45.983Z,19.93
2019-01-11T08:38:16.206Z,23.17
2019-01-11T08:40:46.648Z,21.50
2019-01-11T08:43:17.093Z,22.30
2019-01-11T08:45:47.563Z,25.07
2019-01-11T08:48:17.788Z,22.50
2019-01-11T08:50:48.022Z,20.87
2019-01-11T08:53:18.527Z,22.50
2019-01-11T08:55:48.785Z,25.50
2019-01-11T08:58:19.019Z,21.33
2019-01-11T09:00:49.237Z,22.27
2019-01-11T09:03:19.434Z,22.13
2019-01-11T09:05:49.733Z,20.23
2019-01-11T09:08:19.927Z,24.17
2019-01-11T09:10:50.702Z,22.70
2019-01-11T09:13:20.903Z,30.93
2019-01-11T09:15:51.130Z,22.77
2019-01-11T09:18:21.449Z,22.17
2019-01-11T09:20:51.658Z,22.40
2019-01-11T09:23:21.877Z,24.20
2019-01-11T09:25:52.101Z,24.10
2019-01-11T09:28:22.295Z,25.37
2019-01-11T09:30:52.513Z,22.27
2019-01-11T09:33:22.948Z,21.00
2019-01-11T09:35:53.177Z,24.57
2019-01-11T09:38:23.395Z,24.33
2019-01-11T09:40:53.618Z,26.43
2019-01-11T09:43:23.849Z,24.50
2019-01-11T09:45:54.070Z,29.07
2019-01-11T09:48:24.505Z,26.60
2019-01-11T09:50:54.730Z,26.63
2019-01-11T09:53:24.949Z,26.23
2019-01-11T09:55:55.153Z,22.47
2019-01-11T09:58:25.590Z,22.13
2019-01-11T10:00:59.110Z,18.97
2019-01-11T10:03:28.081Z,21.93
2019-01-11T10:05:58.306Z,18.83
2019-01-11T10:08:28.498Z,17.93
2019-01-11T10:10:58.740Z,20.00
2019-01-11T10:13:28.939Z,15.83
2019-01-11T10:15:59.166Z,13.77
2019-01-11T10:18:29.376Z,16.47
2019-01-11T10:20:59.829Z,15.87
2019-01-11T10:23:30.067Z,17.17
2019-01-11T10:26:00.285Z,14.03
2019-01-11T10:28:30.714Z,15.27
2019-01-11T10:31:00.939Z,13.37
2019-01-11T10:33:36.198Z,14.07
2019-01-11T10:36:03.066Z,13.27
2019-01-11T10:38:33.295Z,12.40
2019-01-11T10:41:03.489Z,12.57
2019-01-11T10:43:33.703Z,13.67
2019-01-11T10:46:05.633Z,14.03
2019-01-11T10:48:35.842Z,12.20
2019-01-11T10:51:06.062Z,12.33
2019-01-11T10:53:36.273Z,12.13
2019-01-11T10:56:06.719Z,12.40
2019-01-11T10:58:36.909Z,13.43
2019-01-11T11:01:07.375Z,12.17
2019-01-11T11:03:37.587Z,13.20
2019-01-11T11:06:07.807Z,12.30
2019-01-11T11:08:38.000Z,11.27
2019-01-11T11:11:08.222Z,12.93
2019-01-11T11:13:38.681Z,14.50
2019-01-11T11:16:09.114Z,17.20
2019-01-11T11:18:39.324Z,12.80
2019-01-11T11:21:09.537Z,14.93
2019-01-11T11:23:40.071Z,14.23
2019-01-11T11:26:10.509Z,16.20
2019-01-11T11:28:40.966Z,12.53
2019-01-11T11:31:11.407Z,12.93
2019-01-11T11:33:41.871Z,15.77
2019-01-11T11:36:12.062Z,15.40
2019-01-11T11:38:42.291Z,15.67
2019-01-11T11:41:12.715Z,13.77
2019-01-11T11:43:44.622Z,14.23
2019-01-11T11:46:14.813Z,18.50
2019-01-11T11:48:45.107Z,20.03
2019-01-11T11:51:15.294Z,22.77
2019-01-11T11:53:45.510Z,19.50
2019-01-11T11:56:15.848Z,21.20
2019-01-11T11:58:46.321Z,21.47
2019-01-11T12:01:16.521Z,18.20
2019-01-11T12:03:47.382Z,21.53
2019-01-11T12:06:17.631Z,20.53
2019-01-11T12:08:49.032Z,28.87
2019-01-11T12:11:19.456Z,27.53
2019-01-11T12:13:49.714Z,25.57
2019-01-11T12:16:19.914Z,27.07
2019-01-11T12:18:50.312Z,21.87
2019-01-11T12:21:23.942Z,23.60
2019-01-11T12:23:54.357Z,22.67
2019-01-11T12:26:24.987Z,22.60
2019-01-11T12:28:55.173Z,22.77
2019-01-11T12:31:25.392Z,25.87
2019-01-11T12:33:55.591Z,23.77
2019-01-11T12:36:25.813Z,25.13
2019-01-11T12:38:56.240Z,29.30
2019-01-11T12:41:26.737Z,24.87
2019-01-11T12:43:56.959Z,24.47
2019-01-11T12:46:27.458Z,22.83
2019-01-11T12:48:57.686Z,26.17
2019-01-11T12:51:27.920Z,24.43
2019-01-11T12:53:58.273Z,28.27
2019-01-11T12:56:28.465Z,26.00
2019-01-11T12:58:58.947Z,25.87
2019-01-11T13:01:29.673Z,23.17
2019-01-11T13:04:00.137Z,20.63
2019-01-11T13:06:30.383Z,25.93
2019-01-11T13:09:00.587Z,22.83
2019-01-11T13:11:30.817Z,30.23
2019-01-11T13:14:01.031Z,25.90
2019-01-11T13:16:31.323Z,24.57
2019-01-11T13:19:01.762Z,25.50
2019-01-11T13:21:32.231Z,26.73
2019-01-11T13:24:02.430Z,29.20
2019-01-11T13:26:32.692Z,29.27
2019-01-11T13:29:02.958Z,23.07
2019-01-11T13:31:33.430Z,29.67
2019-01-11T13:34:03.938Z,26.47
2019-01-11T13:36:34.177Z,26.63
2019-01-11T13:39:08.742Z,27.27
2019-01-11T13:41:39.267Z,25.30
2019-01-11T13:44:09.499Z,27.20
2019-01-11T13:46:39.726Z,23.50
2019-01-11T13:49:09.929Z,28.20
2019-01-11T13:51:40.150Z,25.83
2019-01-11T13:54:10.444Z,23.27
2019-01-11T13:56:40.691Z,24.87
2019-01-11T13:59:11.214Z,24.90
2019-01-11T14:01:41.476Z,26.40
2019-01-11T14:04:11.723Z,28.37
2019-01-11T14:06:41.903Z,25.70
2019-01-11T14:09:12.503Z,25.47
2019-01-11T14:11:43.110Z,27.63
2019-01-11T14:14:13.327Z,30.70
2019-01-11T14:16:43.546Z,29.87
2019-01-11T14:19:13.786Z,30.67
2019-01-11T14:21:44.065Z,25.90
2019-01-11T14:24:14.477Z,28.37
2019-01-11T14:26:44.698Z,27.83
2019-01-11T14:29:14.898Z,22.77
2019-01-11T14:31:45.115Z,22.03
2019-01-11T14:34:15.392Z,21.83
2019-01-11T14:36:45.923Z,22.53
2019-01-11T14:39:16.153Z,22.27
2019-01-11T14:41:46.358Z,22.50
2019-01-11T14:44:16.923Z,19.70
2019-01-11T14:46:47.186Z,23.97
2019-01-11T14:49:17.410Z,21.47
2019-01-11T14:51:47.826Z,18.30
2019-01-11T14:54:18.229Z,20.77
2019-01-11T14:56:48.456Z,19.07
2019-01-11T14:59:18.675Z,17.87
2019-01-11T15:01:49.107Z,17.80
2019-01-11T15:04:19.330Z,20.97
2019-01-11T15:06:49.538Z,20.10
2019-01-11T15:09:19.827Z,22.67
2019-01-11T15:11:50.023Z,20.60
2019-01-11T15:14:20.248Z,22.40
2019-01-11T15:16:50.463Z,21.10
2019-01-11T15:19:20.912Z,24.23
2019-01-11T15:21:51.347Z,24.40
2019-01-11T15:24:21.578Z,23.93
2019-01-11T15:26:52.013Z,23.43
2019-01-11T15:29:22.237Z,25.43
2019-01-11T15:31:52.678Z,24.17
2019-01-11T15:34:23.143Z,28.80
2019-01-11T15:36:53.569Z,24.63
2019-01-11T15:39:23.790Z,24.20
2019-01-11T15:41:53.994Z,26.10
2019-01-11T15:44:24.215Z,27.00
2019-01-11T15:46:54.438Z,30.47
2019-01-11T15:49:24.658Z,24.33
2019-01-11T15:51:54.886Z,28.50
2019-01-11T15:54:25.112Z,28.83
2019-01-11T15:56:55.310Z,27.13
2019-01-11T15:59:25.779Z,26.33
2019-01-11T16:01:56.038Z,27.13
2019-01-11T16:04:26.856Z,31.95
2019-01-11T16:06:57.312Z,29.83
2019-01-11T16:09:32.469Z,32.80
2019-01-11T16:12:06.003Z,29.33
2019-01-11T16:14:41.858Z,30.17
2019-01-11T16:17:15.430Z,27.73
2019-01-11T16:19:45.652Z,29.90
2019-01-11T16:22:15.861Z,29.17
2019-01-11T16:24:46.095Z,30.03
2019-01-11T16:27:16.304Z,32.47
2019-01-11T16:29:46.514Z,29.33
2019-01-11T16:32:16.723Z,29.67
2019-01-11T16:34:47.195Z,31.37
2019-01-11T16:37:17.648Z,30.00
2019-01-11T16:39:48.151Z,32.00
2019-01-11T16:42:19.764Z,29.07
2019-01-11T16:44:50.123Z,25.23
2019-01-11T16:47:20.337Z,27.43
2019-01-11T16:49:51.355Z,24.32
2019-01-11T16:52:22.190Z,24.05
2019-01-11T16:54:52.382Z,24.57
2019-01-11T16:57:22.597Z,25.55
2019-01-11T16:59:53.046Z,22.60
2019-01-11T17:02:23.295Z,23.73
2019-01-11T17:04:54.069Z,25.12
2019-01-11T17:07:24.297Z,30.87
2019-01-11T17:09:55.090Z,26.85
2019-01-11T17:12:25.530Z,26.50
2019-01-11T17:14:55.967Z,29.73
2019-01-11T17:17:26.774Z,27.20
2019-01-11T17:19:57.791Z,31.62
2019-01-11T17:22:28.596Z,26.55
2019-01-11T17:24:59.609Z,27.80
2019-01-11T17:27:30.652Z,29.80
2019-01-11T17:30:01.107Z,29.47
2019-01-11T17:32:32.225Z,25.10
2019-01-11T17:35:03.518Z,30.68
2019-01-11T17:37:37.377Z,26.70
2019-01-11T17:40:09.735Z,29.17
2019-01-11T17:42:41.411Z,26.73
2019-01-11T17:45:13.208Z,28.05
2019-01-11T17:47:43.499Z,25.67
2019-01-11T17:50:15.380Z,30.57
2019-01-11T17:52:46.343Z,25.72
2019-01-11T17:55:17.364Z,24.82
2019-01-11T17:57:48.666Z,25.52
2019-01-11T18:00:19.951Z,26.25
2019-01-11T18:02:50.746Z,20.30
2019-01-11T18:05:21.551Z,21.17
2019-01-11T18:07:52.329Z,25.45
2019-01-11T18:10:23.227Z,24.43
2019-01-11T18:12:54.020Z,24.60
2019-01-11T18:15:25.094Z,23.90
2019-01-11T18:17:55.367Z,23.83
2019-01-11T18:20:27.706Z,24.80
2019-01-11T18:22:58.515Z,20.40
2019-01-11T18:25:29.521Z,19.48
2019-01-11T18:28:00.333Z,21.25
2019-01-11T18:30:31.102Z,17.45
2019-01-11T18:33:02.130Z,16.00
2019-01-11T18:35:32.895Z,16.50
2019-01-11T18:38:03.767Z,14.28
2019-01-11T18:40:34.806Z,16.17
2019-01-11T18:43:05.821Z,14.23
2019-01-11T18:45:36.038Z,15.70
2019-01-11T18:48:07.035Z,16.85
2019-01-11T18:50:37.839Z,15.32
2019-01-11T18:53:13.645Z,16.43
2019-01-11T18:55:43.091Z,19.10
2019-01-11T18:58:13.308Z,21.37
2019-01-11T19:00:43.739Z,17.93
2019-01-11T19:03:14.221Z,16.75
2019-01-11T19:05:45.021Z,24.72
2019-01-11T19:08:15.831Z,18.87
2019-01-11T19:10:46.637Z,22.48
2019-01-11T19:13:16.829Z,18.73
2019-01-11T19:15:47.119Z,19.53
2019-01-11T19:18:17.901Z,22.17
2019-01-11T19:20:48.941Z,20.95
2019-01-11T19:23:20.561Z,20.32
2019-01-11T19:25:51.598Z,18.40
2019-01-11T19:28:22.378Z,20.60
2019-01-11T19:30:52.601Z,20.37
2019-01-11T19:33:22.796Z,21.00
2019-01-11T19:35:53.640Z,24.07
2019-01-11T19:38:24.714Z,23.62
2019-01-11T19:40:55.527Z,23.38
2019-01-11T19:43:26.322Z,24.02
2019-01-11T19:45:57.378Z,27.50
2019-01-11T19:48:28.421Z,22.73
2019-01-11T19:50:59.226Z,21.95
2019-01-11T19:53:30.006Z,25.50
2019-01-11T19:56:00.886Z,24.72
2019-01-11T19:58:31.102Z,22.27
2019-01-11T20:01:02.026Z,27.40
2019-01-11T20:03:32.286Z,26.60
2019-01-11T20:06:03.327Z,25.97
2019-01-11T20:08:34.119Z,23.00
2019-01-11T20:11:05.368Z,21.23
2019-01-11T20:13:36.226Z,19.65
2019-01-11T20:16:07.055Z,24.15
2019-01-11T20:18:38.108Z,21.15
2019-01-11T20:21:09.157Z,21.30
2019-01-11T20:23:40.333Z,20.90
2019-01-11T20:26:11.187Z,22.22
2019-01-11T20:28:42.286Z,20.62
2019-01-11T20:31:13.111Z,17.87
2019-01-11T20:33:43.935Z,18.25
2019-01-11T20:36:14.939Z,16.30
2019-01-11T20:38:45.746Z,12.60
2019-01-11T20:41:16.515Z,12.35
2019-01-11T20:43:47.544Z,15.60
2019-01-11T20:46:18.584Z,11.00
2019-01-11T20:48:49.610Z,12.03
2019-01-11T20:51:20.627Z,18.37
2019-01-11T20:53:51.663Z,19.95
2019-01-11T20:56:22.433Z,17.73
2019-01-11T20:58:53.238Z,23.27
2019-01-11T21:01:24.243Z,19.20
2019-01-11T21:03:55.123Z,22.10
2019-01-11T21:06:26.144Z,19.90
2019-01-11T21:08:56.941Z,19.85
2019-01-11T21:11:27.725Z,20.72
2019-01-11T21:13:58.783Z,20.20
2019-01-11T21:16:29.550Z,19.37
2019-01-11T21:18:59.840Z,21.67
2019-01-11T21:21:30.609Z,19.48
2019-01-11T21:24:01.676Z,20.65
2019-01-11T21:26:32.471Z,20.80
2019-01-11T21:29:03.434Z,20.15
2019-01-11T21:31:34.269Z,21.48
2019-01-11T21:34:05.629Z,16.93
2019-01-11T21:36:35.823Z,20.07
2019-01-11T21:39:06.746Z,20.20
2019-01-11T21:41:36.970Z,17.07
2019-01-11T21:44:07.759Z,20.60
2019-01-11T21:46:38.211Z,21.30
2019-01-11T21:49:08.655Z,19.33
2019-01-11T21:51:38.865Z,21.60
2019-01-11T21:54:09.086Z,19.30
2019-01-11T21:56:40.122Z,21.20
2019-01-11T21:59:10.550Z,21.70
2019-01-11T22:01:41.338Z,19.23
2019-01-11T22:04:11.554Z,22.37
2019-01-11T22:06:41.780Z,23.30
2019-01-11T22:09:16.587Z,20.68
2019-01-11T22:11:47.615Z,17.95
2019-01-11T22:14:18.418Z,17.37
2019-01-11T22:16:49.189Z,19.45
2019-01-11T22:19:20.245Z,23.67
2019-01-11T22:21:51.024Z,20.75
2019-01-11T22:24:21.830Z,19.98
2019-01-11T22:26:52.270Z,19.37
2019-01-11T22:29:22.503Z,18.00
2019-01-11T22:31:53.302Z,18.35
2019-01-11T22:34:24.079Z,18.23
2019-01-11T22:36:55.114Z,18.73
2019-01-11T22:39:25.882Z,18.32
2019-01-11T22:41:56.688Z,16.50
2019-01-11T22:44:27.499Z,19.52
2019-01-11T22:46:58.308Z,18.70
2019-01-11T22:49:29.095Z,19.52
2019-01-11T22:51:59.843Z,17.55
2019-01-11T22:54:30.618Z,17.25
2019-01-11T22:57:01.663Z,19.30
2019-01-11T22:59:32.453Z,21.80
2019-01-11T23:02:05.678Z,19.63
2019-01-11T23:04:36.644Z,16.32
2019-01-11T23:07:09.361Z,18.30
2019-01-11T23:09:42.031Z,13.35
2019-01-11T23:12:30.783Z,14.25
2019-01-11T23:15:01.546Z,16.45
2019-01-11T23:17:44.155Z,14.53
2019-01-11T23:20:18.143Z,16.02
2019-01-11T23:26:46.042Z,16.85
2019-01-11T23:29:30.307Z,17.12
2019-01-11T23:32:07.422Z,12.73
2019-01-11T23:34:44.694Z,15.93
2019-01-11T23:37:24.431Z,13.17
2019-01-11T23:40:02.198Z,14.18
2019-01-11T23:42:38.720Z,15.58
2019-01-11T23:45:17.241Z,15.00
2019-01-11T23:47:55.807Z,13.83
2019-01-11T23:50:33.770Z,15.53
2019-01-11T23:53:08.014Z,14.43
2019-01-11T23:55:43.500Z,13.80
2019-01-11T23:58:16.201Z,13.85
